WetterOnline ( https://www.wetteronline.de )

Wetter aktuell Sankt Peter-Ording

Aktuelles Wetter: St. Peter-Ording (11m)

6-stündlich | Neueste Meldungen
Ortszeit Temperatur Wetter
Mi, 17.04. 14:00 9.2° C Sprühregen
Mi, 17.04. 8:00 8.3° C leicht bewölkt
Mi, 17.04. 2:00 7.7° C bewölkt
Di, 16.04. 20:00 8.8° C bewölkt
Di, 16.04. 14:00 9.7° C bewölkt
Di, 16.04. 8:00 6.8° C bedeckt
Di, 16.04. 2:00 6.9° C leicht bewölkt
Mo, 15.04. 20:00 7.0° C leichter Regen
Ortszeit Temperatur Wetter
Mi, 17.04. 14:00 9.2° C Sprühregen
Mi, 17.04. 13:50 9.2° C Sprühregen
Mi, 17.04. 13:40 8.6° C bedeckt
Mi, 17.04. 13:30 8.7° C bedeckt
Mi, 17.04. 13:20 8.7° C bedeckt
Mi, 17.04. 13:10 9.2° C bedeckt
Mi, 17.04. 13:00 8.5° C Sprühregen
Mi, 17.04. 12:30 8.7° C bewölkt
Mi, 17.04. 12:00 7.9° C bedeckt
Mi, 17.04. 11:30 7.4° C bedeckt
Mi, 17.04. 11:00 7.3° C leichter Regen
Ortszeit Relative Feuchte Sichtweite
Mi, 17.04. 14:00 70% 35 km
Mi, 17.04. 8:00 73% 50 km
Mi, 17.04. 2:00 76% >70 km
Di, 16.04. 20:00 71% 50 km
Di, 16.04. 14:00 74% 45 km
Di, 16.04. 8:00 88% 35 km
Di, 16.04. 2:00 79% 35 km
Mo, 15.04. 20:00 88% 14 km
Ortszeit Relative Feuchte Sichtweite
Mi, 17.04. 14:00 70% 35 km
Mi, 17.04. 13:50 70% -
Mi, 17.04. 13:40 70% -
Mi, 17.04. 13:30 70% >70 km
Mi, 17.04. 13:20 70% -
Mi, 17.04. 13:10 70% -
Mi, 17.04. 13:00 74% 65 km
Mi, 17.04. 12:30 70% 55 km
Mi, 17.04. 12:00 71% 60 km
Mi, 17.04. 11:30 73% 55 km
Mi, 17.04. 11:00 75% 45 km
Ortszeit Niederschlagsmenge Niederschlagsart
Mi, 17.04. 14:00 0.1 l/m2 in 6 Std. Regen
Mi, 17.04. 8:00 0.1 l/m2 in 12 Std. -
Mi, 17.04. 2:00 0.1 l/m2 in 6 Std. Regen
Di, 16.04. 20:00 2 l/m2 in 12 Std. Regen
Di, 16.04. 14:00 2 l/m2 in 6 Std. Regen
Di, 16.04. 8:00 2 l/m2 in 12 Std. Regen
Di, 16.04. 2:00 2 l/m2 in 6 Std. Regen
Mo, 15.04. 20:00 4 l/m2 in 12 Std. Regen
Ortszeit Niederschlagsmenge Niederschlagsart
Mi, 17.04. 14:00 <0.05 l/m2 in 1 Std. Regen
Mi, 17.04. 13:50 keine Meldung -
Mi, 17.04. 13:40 keine Meldung -
Mi, 17.04. 13:30 <0.05 l/m2 in 30 Min Schneeregen
Mi, 17.04. 13:20 keine Meldung -
Mi, 17.04. 13:10 keine Meldung -
Mi, 17.04. 13:00 <0.05 l/m2 in 1 Std. Sprühregen
Mi, 17.04. 12:30 0.0 l/m2 in 30 Min -
Mi, 17.04. 12:00 <0.05 l/m2 in 1 Std. Regen
Mi, 17.04. 11:30 <0.05 l/m2 in 30 Min Schneeregen
Mi, 17.04. 11:00 <0.05 l/m2 in 1 Std. Regen
Ortszeit Stärke Spitze Richtung
km/h Bft. km/h Grad Sektor
Mi, 17.04. 14:00 15 3 33 330° NW
Mi, 17.04. 8:00 13 3 33 350° N
Mi, 17.04. 2:00 22 4 32 350° N
Di, 16.04. 20:00 11 2 47 360° N
Di, 16.04. 14:00 25 4 43 40° NO
Di, 16.04. 8:00 24 4 57 230° SW
Di, 16.04. 2:00 40 6 61 260° W
Mo, 15.04. 20:00 30 5 56 240° SW
Ortszeit Stärke Spitze Richtung
km/h Bft. km/h Grad Sektor
Mi, 17.04. 14:00 15 3 24 330° NW
Mi, 17.04. 13:50 15 3 - 330° NW
Mi, 17.04. 13:40 14 3 - 340° N
Mi, 17.04. 13:30 13 3 22 330° NW
Mi, 17.04. 13:20 13 3 - 330° NW
Mi, 17.04. 13:10 13 3 - 340° N
Mi, 17.04. 13:00 19 3 26 340° N
Mi, 17.04. 12:30 14 3 22 330° NW
Mi, 17.04. 12:00 11 2 26 300° NW
Mi, 17.04. 11:30 15 3 26 320° NW
Mi, 17.04. 11:00 22 4 32 330° NW
Ortszeit Untergrenze Bedeckung Gattung
total tief tief mittel hoch
Mi, 17.04. 14:00 1500 m 8/8 8/8 - - -
Mi, 17.04. 8:00 660 m 5/8 2/8 - - -
Mi, 17.04. 2:00 1800 m 8/8 5/8 - - -
Di, 16.04. 20:00 1290 m 7/8 7/8 - - -
Di, 16.04. 14:00 570 m 7/8 7/8 - - -
Di, 16.04. 8:00 510 m 8/8 8/8 - - -
Di, 16.04. 2:00 930 m 3/8 3/8 - - -
Mo, 15.04. 20:00 510 m 6/8 6/8 - - -
Ortszeit Bedeckungsgrad in Achtel und Wolkenuntergrenze
Mi, 17.04. 14:00 2(1500m) 8(2100m) 8(2400m)
Mi, 17.04. 13:50 2(1500m) 8(2100m) 8(2400m)
Mi, 17.04. 13:40 8
Mi, 17.04. 13:30 2(1290m) 8(2100m) 8(2400m)
Mi, 17.04. 13:20 2(1290m) 8(2100m) 8(2400m)
Mi, 17.04. 13:10 8
Mi, 17.04. 13:00 2(600m) 8(1800m) 8(2400m)
Mi, 17.04. 12:30 7(1140m) 7(1500m) 7(2100m)
Mi, 17.04. 12:00 1(1170m) 8(2100m) 8(2400m)
Mi, 17.04. 11:30 2(870m) 7(2100m) 8(2400m)
Mi, 17.04. 11:00 2(720m) 6(1500m) 7(2100m)
Ortszeit Luftdruck NN (hPa) Tendenz (hPa in 3 Std.)
Mi, 17.04. 14:00 1010 + 0,5
Mi, 17.04. 8:00 1008 + 0,6
Mi, 17.04. 2:00 1008 + 0,9
Di, 16.04. 20:00 1005 + 1,6
Di, 16.04. 14:00 1001 + 2,9
Di, 16.04. 8:00 996 + 1,5
Di, 16.04. 2:00 994 + 0,4
Mo, 15.04. 20:00 994 - 3,5
Ortszeit Luftdruck NN (hPa) Tendenz (hPa in 3 Std.)
Mi, 17.04. 14:00 1010 + 0,5
Mi, 17.04. 13:50 1010 keine Meldung
Mi, 17.04. 13:40 1010 keine Meldung
Mi, 17.04. 13:30 1010 + 0,5
Mi, 17.04. 13:20 1010 keine Meldung
Mi, 17.04. 13:10 1010 keine Meldung
Mi, 17.04. 13:00 1010 + 0,7
Mi, 17.04. 12:30 1010 + 1,0
Mi, 17.04. 12:00 1010 + 0,8
Mi, 17.04. 11:30 1009 + 0,8
Mi, 17.04. 11:00 1009 + 0,9
Ortszeit Schneehöhe (cm)
Mi, 17.04. 14:00 0
Mi, 17.04. 8:00 0
Mi, 17.04. 2:00 0
Di, 16.04. 20:00 0
Di, 16.04. 14:00 0
Di, 16.04. 8:00 0
Di, 16.04. 2:00 0
Mo, 15.04. 20:00 0
Ortszeit Schneehöhe (cm)
Mi, 17.04. 14:00 0
Mi, 17.04. 13:50 0
Mi, 17.04. 13:40 -
Mi, 17.04. 13:30 0
Mi, 17.04. 13:20 0
Mi, 17.04. 13:10 -
Mi, 17.04. 13:00 0
Mi, 17.04. 12:30 0
Mi, 17.04. 12:00 0
Mi, 17.04. 11:30 0
Mi, 17.04. 11:00 0
Link zu dieser Seite / Seite empfehlen

Das Wetter in ...